Time,TemperatureF,DewpointF,PressureIn,WindDirection,WindDirectionDegrees,WindSpeedMPH,WindSpeedGustMPH,Humidity,HourlyPrecipIn,Conditions,Clouds,dailyrainin,SoftwareType,DateUTC
2013-01-14 00:03:00,59.0,57.0,30.10,SE,134,2.0,9.0,94,0.21,,,0.01,weatherlink.com 1.10,2013-01-14 05:03:00,
2013-01-14 00:18:00,59.0,57.0,30.11,WSW,239,5.0,14.0,94,0.22,,,0.06,weatherlink.com 1.10,2013-01-14 05:18:00,
2013-01-14 00:33:00,59.0,57.0,30.10,South,188,4.0,10.0,94,0.19,,,0.11,weatherlink.com 1.10,2013-01-14 05:33:00,
2013-01-14 00:48:00,58.8,57.0,30.11,East,97,3.0,12.0,94,0.18,,,0.15,weatherlink.com 1.10,2013-01-14 05:48:00,
2013-01-14 01:04:00,59.1,57.0,30.10,SE,139,2.0,11.0,93,0.18,,,0.20,weatherlink.com 1.10,2013-01-14 06:04:00,
2013-01-14 01:19:00,58.9,57.0,30.10,NNW,335,0.0,10.0,93,0.18,,,0.24,weatherlink.com 1.10,2013-01-14 06:19:00,
2013-01-14 01:34:00,58.9,57.0,30.10,ESE,106,2.0,8.0,93,0.19,,,0.30,weatherlink.com 1.10,2013-01-14 06:34:00,
2013-01-14 01:49:00,58.1,57.0,30.10,ESE,105,1.0,5.0,95,0.20,,,0.36,weatherlink.com 1.10,2013-01-14 06:49:00,
2013-01-14 02:04:00,58.7,57.0,30.10,SSE,166,4.0,9.0,94,0.19,,,0.39,weatherlink.com 1.10,2013-01-14 07:04:00,
2013-01-14 02:19:00,58.6,57.0,30.10,ENE,63,2.0,10.0,94,0.16,,,0.41,weatherlink.com 1.10,2013-01-14 07:19:00,
2013-01-14 02:34:00,58.0,57.0,30.10,NNE,25,7.0,7.0,96,0.11,,,0.41,weatherlink.com 1.10,2013-01-14 07:34:00,
2013-01-14 02:49:00,58.1,57.0,30.10,South,174,0.0,8.0,96,0.04,,,0.41,weatherlink.com 1.10,2013-01-14 07:49:00,
2013-01-14 03:04:00,58.0,57.0,30.10,SSE,147,6.0,11.0,96,0.02,,,0.41,weatherlink.com 1.10,2013-01-14 08:04:00,
2013-01-14 03:19:00,58.0,57.0,30.09,SE,131,3.0,7.0,97,0.00,,,0.41,weatherlink.com 1.10,2013-01-14 08:19:00,
2013-01-14 03:34:00,58.0,57.0,30.09,SSW,204,4.0,14.0,97,0.00,,,0.41,weatherlink.com 1.10,2013-01-14 08:34:00,
2013-01-14 03:49:00,58.0,57.0,30.08,ESE,123,6.0,15.0,97,0.00,,,0.41,weatherlink.com 1.10,2013-01-14 08:49:00,
2013-01-14 04:04:00,57.9,57.0,30.09,ESE,107,8.0,8.0,97,0.00,,,0.41,weatherlink.com 1.10,2013-01-14 09:04:00,
2013-01-14 04:19:00,57.9,57.0,30.08,ENE,64,2.0,6.0,97,0.01,,,0.42,weatherlink.com 1.10,2013-01-14 09:19:00,
2013-01-14 04:34:00,57.6,57.0,30.08,SE,141,0.0,2.0,98,0.02,,,0.43,weatherlink.com 1.10,2013-01-14 09:34:00,
2013-01-14 04:49:00,58.1,57.0,30.07,East,99,1.0,7.0,96,0.03,,,0.44,weatherlink.com 1.10,2013-01-14 09:49:00,
2013-01-14 05:04:00,58.0,57.0,30.07,East,94,5.0,8.0,97,0.03,,,0.44,weatherlink.com 1.10,2013-01-14 10:04:00,
2013-01-14 05:19:00,58.2,57.0,30.07,ESE,121,2.0,5.0,96,0.03,,,0.45,weatherlink.com 1.10,2013-01-14 10:19:00,
2013-01-14 05:34:00,58.3,57.0,30.07,SE,136,6.0,11.0,96,0.02,,,0.45,weatherlink.com 1.10,2013-01-14 10:34:00,
2013-01-14 05:49:00,58.0,57.0,30.07,East,96,2.0,5.0,96,0.01,,,0.45,weatherlink.com 1.10,2013-01-14 10:49:00,
2013-01-14 06:04:00,58.0,57.0,30.08,East,86,1.0,3.0,96,0.02,,,0.46,weatherlink.com 1.10,2013-01-14 11:04:00,
2013-01-14 06:19:00,57.9,57.0,30.09,East,96,2.0,7.0,97,0.01,,,0.46,weatherlink.com 1.10,2013-01-14 11:19:00,
2013-01-14 06:34:00,58.1,57.0,30.09,ESE,105,2.0,7.0,96,0.02,,,0.47,weatherlink.com 1.10,2013-01-14 11:34:00,
2013-01-14 06:49:00,58.3,57.0,30.09,SE,125,5.0,7.0,96,0.04,,,0.49,weatherlink.com 1.10,2013-01-14 11:49:00,
2013-01-14 07:04:00,58.4,57.0,30.10,ESE,118,1.0,5.0,96,0.03,,,0.49,weatherlink.com 1.10,2013-01-14 12:04:00,
2013-01-14 07:19:00,58.1,57.0,30.11,East,97,3.0,4.0,97,0.04,,,0.50,weatherlink.com 1.10,2013-01-14 12:19:00,
2013-01-14 07:34:00,58.0,57.0,30.11,ESE,117,2.0,3.0,97,0.03,,,0.50,weatherlink.com 1.10,2013-01-14 12:34:00,
2013-01-14 07:49:00,57.9,57.0,30.11,SSE,155,4.0,7.0,97,0.01,,,0.50,weatherlink.com 1.10,2013-01-14 12:49:00,
2013-01-14 08:04:00,58.2,57.0,30.12,ENE,75,0.0,5.0,97,0.02,,,0.51,weatherlink.com 1.10,2013-01-14 13:04:00,
2013-01-14 08:19:00,57.5,56.0,30.13,North,350,0.0,1.0,96,0.06,,,0.56,weatherlink.com 1.10,2013-01-14 13:19:00,
2013-01-14 08:34:00,57.8,57.0,30.13,NW,322,2.0,7.0,98,0.16,,,0.66,weatherlink.com 1.10,2013-01-14 13:34:00,
2013-01-14 08:49:00,57.5,57.0,30.13,NNW,336,1.0,2.0,98,0.28,,,0.78,weatherlink.com 1.10,2013-01-14 13:49:00,
2013-01-14 09:04:00,57.6,57.0,30.13,NE,46,1.0,4.0,99,0.35,,,0.86,weatherlink.com 1.10,2013-01-14 14:04:00,
2013-01-14 09:19:00,57.9,57.0,30.14,South,180,4.0,5.0,98,0.32,,,0.88,weatherlink.com 1.10,2013-01-14 14:19:00,
2013-01-14 09:34:00,58.5,58.0,30.14,WSW,243,4.0,4.0,97,0.23,,,0.89,weatherlink.com 1.10,2013-01-14 14:34:00,
2013-01-14 09:49:00,59.0,58.0,30.14,WSW,246,0.0,10.0,96,0.12,,,0.90,weatherlink.com 1.10,2013-01-14 14:49:00,
2013-01-14 10:04:00,59.6,58.0,30.14,East,86,5.0,13.0,95,0.05,,,0.91,weatherlink.com 1.10,2013-01-14 15:04:00,
2013-01-14 10:19:00,59.7,58.0,30.14,South,181,3.0,15.0,95,0.04,,,0.92,weatherlink.com 1.10,2013-01-14 15:19:00,
2013-01-14 10:34:00,59.5,58.0,30.14,ENE,70,1.0,9.0,95,0.03,,,0.93,weatherlink.com 1.10,2013-01-14 15:34:00,
2013-01-14 10:49:00,59.7,58.0,30.13,East,101,6.0,9.0,95,0.04,,,0.94,weatherlink.com 1.10,2013-01-14 15:49:00,
2013-01-14 11:04:00,59.9,59.0,30.13,ESE,110,13.0,14.0,95,0.03,,,0.94,weatherlink.com 1.10,2013-01-14 16:04:00,
2013-01-14 11:20:00,59.7,59.0,30.13,East,98,3.0,8.0,96,0.02,,,0.94,weatherlink.com 1.10,2013-01-14 16:20:00,
2013-01-14 11:35:00,59.9,59.0,30.12,SW,216,1.0,17.0,95,0.01,,,0.94,weatherlink.com 1.10,2013-01-14 16:35:00,
2013-01-14 11:50:00,60.3,59.0,30.11,East,101,2.0,11.0,94,0.01,,,0.95,weatherlink.com 1.10,2013-01-14 16:50:00,
2013-01-14 12:05:00,60.3,59.0,30.11,SSW,208,5.0,12.0,94,0.01,,,0.95,weatherlink.com 1.10,2013-01-14 17:05:00,
2013-01-14 12:20:00,60.2,59.0,30.09,SE,127,3.0,13.0,94,0.02,,,0.96,weatherlink.com 1.10,2013-01-14 17:20:00,
2013-01-14 12:35:00,60.4,59.0,30.09,SE,137,7.0,16.0,94,0.08,,,1.02,weatherlink.com 1.10,2013-01-14 17:35:00,
2013-01-14 12:50:00,60.5,59.0,30.09,South,172,5.0,12.0,93,0.17,,,1.12,weatherlink.com 1.10,2013-01-14 17:50:00,
2013-01-14 13:05:00,60.1,58.0,30.08,East,98,3.0,11.0,94,0.27,,,1.22,weatherlink.com 1.10,2013-01-14 18:05:00,
2013-01-14 13:20:00,60.5,59.0,30.07,East,97,2.0,14.0,93,0.30,,,1.27,weatherlink.com 1.10,2013-01-14 18:20:00,
2013-01-14 13:35:00,60.8,59.0,30.07,South,187,5.0,20.0,93,0.30,,,1.32,weatherlink.com 1.10,2013-01-14 18:35:00,
2013-01-14 13:50:00,60.8,59.0,30.07,SE,125,7.0,12.0,93,0.25,,,1.37,weatherlink.com 1.10,2013-01-14 18:50:00,
2013-01-14 14:05:00,60.3,59.0,30.07,ESE,103,8.0,12.0,95,0.19,,,1.41,weatherlink.com 1.10,2013-01-14 19:05:00,
2013-01-14 14:20:00,60.6,59.0,30.08,ENE,74,3.0,15.0,93,0.21,,,1.48,weatherlink.com 1.10,2013-01-14 19:20:00,
2013-01-14 14:35:00,60.4,58.0,30.08,ENE,70,0.0,16.0,93,0.20,,,1.52,weatherlink.com 1.10,2013-01-14 19:35:00,
2013-01-14 14:50:00,60.2,58.0,30.08,ESE,107,3.0,16.0,93,0.19,,,1.56,weatherlink.com 1.10,2013-01-14 19:50:00,
2013-01-14 15:05:00,59.9,58.0,30.09,NW,316,2.0,8.0,94,0.16,,,1.58,weatherlink.com 1.10,2013-01-14 20:05:00,
2013-01-14 15:20:00,59.6,58.0,30.09,SSW,210,3.0,9.0,94,0.16,,,1.64,weatherlink.com 1.10,2013-01-14 20:20:00,
2013-01-14 15:35:00,59.7,58.0,30.10,ENE,57,9.0,23.0,93,0.13,,,1.66,weatherlink.com 1.10,2013-01-14 20:35:00,
2013-01-14 15:50:00,59.3,58.0,30.11,South,183,5.0,14.0,94,0.17,,,1.73,weatherlink.com 1.10,2013-01-14 20:50:00,
2013-01-14 16:05:00,59.1,57.0,30.11,ENE,57,2.0,7.0,94,0.17,,,1.76,weatherlink.com 1.10,2013-01-14 21:05:00,
2013-01-14 16:20:00,58.8,58.0,30.11,ENE,78,3.0,6.0,96,0.16,,,1.80,weatherlink.com 1.10,2013-01-14 21:20:00,
2013-01-14 16:35:00,59.0,58.0,30.11,NNW,337,5.0,7.0,95,0.17,,,1.83,weatherlink.com 1.10,2013-01-14 21:35:00,
2013-01-14 16:50:00,58.8,57.0,30.12,NNE,33,4.0,9.0,95,0.11,,,1.84,weatherlink.com 1.10,2013-01-14 21:50:00,
2013-01-14 17:05:00,58.9,58.0,30.12,ESE,110,3.0,8.0,95,0.07,,,1.84,weatherlink.com 1.10,2013-01-14 22:05:00,
2013-01-14 17:20:00,58.7,57.0,30.12,NNE,22,4.0,10.0,95,0.05,,,1.85,weatherlink.com 1.10,2013-01-14 22:20:00,
2013-01-14 17:35:00,58.2,57.0,30.13,NNW,333,1.0,6.0,96,0.05,,,1.88,weatherlink.com 1.10,2013-01-14 22:35:00,
2013-01-14 17:50:00,58.2,57.0,30.13,WNW,300,0.0,9.0,96,0.09,,,1.93,weatherlink.com 1.10,2013-01-14 22:50:00,
2013-01-14 18:05:00,58.0,57.0,30.13,ENE,70,4.0,9.0,97,0.10,,,1.94,weatherlink.com 1.10,2013-01-14 23:05:00,
2013-01-14 18:20:00,58.1,57.0,30.13,NNE,20,1.0,5.0,96,0.09,,,1.94,weatherlink.com 1.10,2013-01-14 23:20:00,
2013-01-14 18:35:00,57.9,57.0,30.13,ENE,59,5.0,9.0,98,0.10,,,1.98,weatherlink.com 1.10,2013-01-14 23:35:00,
2013-01-14 18:50:00,58.8,58.0,30.13,NW,326,3.0,9.0,96,0.09,,,2.02,weatherlink.com 1.10,2013-01-14 23:50:00,
2013-01-14 19:05:00,59.0,58.0,30.13,NE,34,6.0,18.0,96,0.13,,,2.07,weatherlink.com 1.10,2013-01-15 00:05:00,
2013-01-14 19:20:00,60.2,58.0,30.13,SE,127,2.0,14.0,93,0.13,,,2.07,weatherlink.com 1.10,2013-01-15 00:20:00,
2013-01-14 19:35:00,60.4,58.0,30.13,SSE,162,1.0,17.0,92,0.09,,,2.07,weatherlink.com 1.10,2013-01-15 00:35:00,
2013-01-14 19:50:00,60.1,58.0,30.12,SW,215,3.0,11.0,93,0.05,,,2.07,weatherlink.com 1.10,2013-01-15 00:50:00,
2013-01-14 20:05:00,60.1,58.0,30.12,SE,142,2.0,11.0,93,0.02,,,2.09,weatherlink.com 1.10,2013-01-15 01:05:00,
2013-01-14 20:20:00,59.7,58.0,30.12,NW,305,1.0,13.0,95,0.06,,,2.13,weatherlink.com 1.10,2013-01-15 01:20:00,
2013-01-14 20:35:00,59.2,58.0,30.13,North,5,4.0,7.0,96,0.13,,,2.20,weatherlink.com 1.10,2013-01-15 01:35:00,
2013-01-14 20:50:00,59.5,58.0,30.14,NE,39,1.0,5.0,96,0.14,,,2.21,weatherlink.com 1.10,2013-01-15 01:50:00,
2013-01-14 21:05:00,59.1,57.0,30.14,NNE,25,5.0,9.0,94,0.13,,,2.22,weatherlink.com 1.10,2013-01-15 02:05:00,
2013-01-14 21:20:00,58.9,57.0,30.14,NE,56,3.0,8.0,93,0.08,,,2.22,weatherlink.com 1.10,2013-01-15 02:20:00,
2013-01-14 21:35:00,58.4,57.0,30.14,NNE,16,3.0,4.0,95,0.02,,,2.22,weatherlink.com 1.10,2013-01-15 02:35:00,
2013-01-14 21:50:00,57.7,57.0,30.14,WSW,255,1.0,2.0,96,0.01,,,2.22,weatherlink.com 1.10,2013-01-15 02:50:00,
2013-01-14 22:05:00,57.0,56.0,30.14,NNW,337,1.0,1.0,97,0.00,,,2.22,weatherlink.com 1.10,2013-01-15 03:05:00,
2013-01-14 22:20:00,56.7,56.0,30.14,SSE,162,2.0,3.0,98,0.00,,,2.22,weatherlink.com 1.10,2013-01-15 03:20:00,
2013-01-14 22:35:00,56.7,56.0,30.13,SSW,198,0.0,3.0,98,0.00,,,2.22,weatherlink.com 1.10,2013-01-15 03:35:00,
2013-01-14 22:50:00,56.8,56.0,30.14,ENE,58,0.0,4.0,98,0.00,,,2.22,weatherlink.com 1.10,2013-01-15 03:50:00,
2013-01-14 23:05:00,56.7,56.0,30.13,WSW,242,0.0,0.0,98,0.00,,,2.22,weatherlink.com 1.10,2013-01-15 04:05:00,
2013-01-14 23:20:00,56.3,56.0,30.14,North,9,0.0,3.0,98,0.00,,,2.22,weatherlink.com 1.10,2013-01-15 04:20:00,
2013-01-14 23:35:00,56.6,56.0,30.13,NNE,29,4.0,6.0,98,0.00,,,2.22,weatherlink.com 1.10,2013-01-15 04:35:00,
2013-01-14 23:50:00,57.6,56.0,30.13,NW,304,0.0,4.0,95,0.00,,,2.22,weatherlink.com 1.10,2013-01-15 04:50:00,